Time;durP1;ratioP1;P1;durP2;ratioP2;P2;SDS_P1;SDS_P2;PMS_P1;PMS_P2;Temp;Humidity;BMP_temperature;BMP_pressure;BME280_temperature;BME280_humidity;BME280_pressure;Samples;Min_cycle;Max_cycle;Signal;HPM_P1;HPM_P2
2022/06/08 00:02:18;;;;;;;4.73;2.80;;;14.10;99.90;;;;;;5074335;28;20258;-74
2022/06/08 00:04:45;;;;;;;5.03;2.73;;;14.10;99.90;;;;;;5074134;28;20200;-74
2022/06/08 00:07:11;;;;;;;4.30;2.77;;;14.10;99.90;;;;;;5073968;28;20664;-74
2022/06/08 00:09:38;;;;;;;3.47;3.17;;;14.10;99.90;;;;;;5073457;28;20262;-74
2022/06/08 00:12:06;;;;;;;4.43;2.90;;;14.20;99.90;;;;;;5073814;28;20227;-74
2022/06/08 00:14:33;;;;;;;3.70;3.10;;;14.20;99.90;;;;;;5073950;28;20200;-74
2022/06/08 00:17:00;;;;;;;4.13;3.03;;;14.10;99.90;;;;;;5073840;28;20197;-74
2022/06/08 00:19:28;;;;;;;3.57;3.23;;;14.10;99.90;;;;;;5073835;28;20246;-73
2022/06/08 00:21:56;;;;;;;3.87;2.90;;;14.10;99.90;;;;;;5073878;28;20267;-74
2022/06/08 00:24:23;;;;;;;4.30;3.30;;;14.10;99.90;;;;;;5073493;28;20717;-74
2022/06/08 00:26:49;;;;;;;4.43;3.17;;;14.10;99.90;;;;;;5073611;28;20204;-74
2022/06/08 00:29:16;;;;;;;3.10;2.80;;;14.10;99.90;;;;;;5073723;28;20201;-74
2022/06/08 00:31:43;;;;;;;3.43;3.13;;;14.10;99.90;;;;;;5073443;28;20691;-74
2022/06/08 00:34:09;;;;;;;3.87;3.40;;;14.00;99.90;;;;;;5073509;28;20209;-74
2022/06/08 00:36:37;;;;;;;3.33;3.00;;;14.00;99.90;;;;;;5073429;28;20196;-74
2022/06/08 00:39:04;;;;;;;3.10;2.90;;;14.10;99.90;;;;;;5076671;28;20229;-74
2022/06/08 00:41:41;;;;;;;3.20;2.80;;;14.10;99.90;;;;;;5085924;28;20194;-74
2022/06/08 00:44:13;;;;;;;4.13;3.23;;;14.10;99.90;;;;;;5076276;28;20196;-74
2022/06/08 00:46:40;;;;;;;3.13;2.83;;;14.10;99.90;;;;;;5073857;28;20205;-74
2022/06/08 00:49:13;;;;;;;3.57;3.23;;;14.20;99.90;;;;;;5074236;28;20228;-74
2022/06/08 00:51:41;;;;;;;3.03;2.77;;;14.20;99.90;;;;;;5073285;28;20239;-73
2022/06/08 00:54:13;;;;;;;3.70;3.30;;;14.30;99.90;;;;;;5073081;28;20205;-74
2022/06/08 00:56:46;;;;;;;3.83;2.73;;;14.20;99.90;;;;;;5073328;28;20205;-74
2022/06/08 00:59:12;;;;;;;3.77;3.10;;;14.30;99.90;;;;;;5073834;28;20231;-74
2022/06/08 01:01:39;;;;;;;3.37;2.90;;;14.30;99.90;;;;;;5073080;28;20316;-73
2022/06/08 01:04:10;;;;;;;3.33;2.80;;;14.30;99.90;;;;;;5072915;28;20648;-74
2022/06/08 01:06:37;;;;;;;3.63;3.33;;;14.20;99.90;;;;;;5072842;28;20200;-74
2022/06/08 01:09:05;;;;;;;3.43;3.10;;;14.20;99.90;;;;;;5073124;28;20201;-74
2022/06/08 01:11:38;;;;;;;4.40;3.20;;;14.10;99.90;;;;;;5072852;28;20225;-74
2022/06/08 01:14:08;;;;;;;3.63;3.10;;;13.90;99.90;;;;;;5072994;28;20239;-74
2022/06/08 01:16:34;;;;;;;4.17;3.30;;;13.90;99.90;;;;;;5072955;28;20250;-74
2022/06/08 01:19:04;;;;;;;4.70;3.20;;;13.80;99.90;;;;;;5072602;28;20714;-73
2022/06/08 01:21:58;;;;;;;4.23;2.90;;;13.80;99.90;;;;;;5072331;28;20245;-73
2022/06/08 01:24:26;;;;;;;6.03;3.33;;;13.70;99.90;;;;;;5072887;28;20204;-74
2022/06/08 01:27:03;;;;;;;5.37;3.63;;;13.60;99.90;;;;;;5072799;28;20193;-74
2022/06/08 01:29:36;;;;;;;3.97;3.40;;;13.60;99.90;;;;;;5075942;28;20699;-73
2022/06/08 01:32:11;;;;;;;4.27;3.87;;;13.50;99.90;;;;;;5078913;28;20229;-73
2022/06/08 01:34:51;;;;;;;3.67;3.37;;;13.40;99.90;;;;;;5072879;28;20196;-74
2022/06/08 01:37:33;;;;;;;4.43;3.30;;;13.30;99.90;;;;;;5072765;28;20591;-74
2022/06/08 01:40:30;;;;;;;4.10;3.50;;;13.30;99.90;;;;;;5072473;28;20600;-73
2022/06/08 01:43:07;;;;;;;4.97;3.67;;;13.20;99.90;;;;;;5070521;28;20208;-73
2022/06/08 01:45:49;;;;;;;4.47;4.07;;;13.20;99.90;;;;;;5072552;28;20201;-73
2022/06/08 01:48:29;;;;;;;7.70;4.37;;;13.10;99.90;;;;;;5072431;28;20233;-73
2022/06/08 01:51:02;;;;;;;4.87;4.47;;;13.10;99.90;;;;;;5072358;28;20557;-73
2022/06/08 01:53:43;;;;;;;4.57;4.17;;;13.00;99.90;;;;;;5072524;28;20197;-73
2022/06/08 01:56:18;;;;;;;6.23;4.90;;;13.00;99.90;;;;;;5072447;28;20270;-74
2022/06/08 01:58:54;;;;;;;6.80;4.53;;;12.90;99.90;;;;;;5072348;28;20181;-74
2022/06/08 02:01:28;;;;;;;5.00;4.60;;;12.90;99.90;;;;;;5072431;28;20660;-73
2022/06/08 02:04:06;;;;;;;5.30;4.70;;;12.90;99.90;;;;;;5072454;28;20255;-73
2022/06/08 02:06:41;;;;;;;5.90;4.87;;;12.90;99.90;;;;;;5072322;28;20229;-74
2022/06/08 02:09:17;;;;;;;6.07;4.87;;;13.00;99.90;;;;;;5072264;28;20266;-74
2022/06/08 02:11:48;;;;;;;6.70;5.50;;;12.90;99.90;;;;;;5072393;28;20224;-73
2022/06/08 02:14:19;;;;;;;6.00;5.20;;;12.90;99.90;;;;;;5072396;28;20271;-73
2022/06/08 02:16:51;;;;;;;5.20;4.70;;;12.90;99.90;;;;;;5072347;28;20205;-74
2022/06/08 02:19:24;;;;;;;6.53;4.90;;;12.80;99.90;;;;;;5072304;28;20647;-73
2022/06/08 02:21:55;;;;;;;5.50;4.90;;;12.90;99.90;;;;;;5072558;28;20197;-73
2022/06/08 02:24:26;;;;;;;5.73;5.10;;;12.70;99.90;;;;;;5072520;28;20258;-73
2022/06/08 02:26:56;;;;;;;5.17;4.67;;;12.60;99.90;;;;;;5072470;28;20239;-73
2022/06/08 02:29:27;;;;;;;5.53;4.93;;;12.50;99.90;;;;;;5072388;28;20613;-73
2022/06/08 02:31:58;;;;;;;5.63;5.03;;;12.50;99.90;;;;;;5072356;28;20221;-74
2022/06/08 02:34:31;;;;;;;5.60;5.00;;;12.40;99.90;;;;;;5075158;28;20254;-73
2022/06/08 02:37:07;;;;;;;11.53;5.50;;;12.30;99.90;;;;;;5076165;28;20201;-73
2022/06/08 02:39:41;;;;;;;8.07;5.07;;;12.30;99.90;;;;;;5076261;28;20196;-74
2022/06/08 02:42:12;;;;;;;5.90;5.27;;;12.40;99.90;;;;;;5076268;28;20247;-74
2022/06/08 02:44:41;;;;;;;6.00;5.40;;;12.40;99.90;;;;;;5076091;28;20204;-74
2022/06/08 02:47:14;;;;;;;6.00;5.40;;;12.30;99.90;;;;;;5075978;28;20205;-74
2022/06/08 02:49:41;;;;;;;6.27;5.57;;;12.30;99.90;;;;;;5076510;28;20288;-73
2022/06/08 02:52:20;;;;;;;6.43;5.83;;;12.40;99.90;;;;;;5085867;28;20247;-72
2022/06/08 02:54:50;;;;;;;6.10;5.50;;;12.20;99.90;;;;;;5095697;28;20201;-74
2022/06/08 02:57:25;;;;;;;6.90;5.50;;;12.20;99.90;;;;;;5089483;28;20259;-72
2022/06/08 02:59:59;;;;;;;7.40;6.70;;;12.20;99.90;;;;;;5100082;28;20189;-72
2022/06/08 03:02:32;;;;;;;7.13;6.43;;;12.10;99.90;;;;;;5096405;28;20197;-73
2022/06/08 03:05:04;;;;;;;6.70;6.00;;;12.10;99.90;;;;;;5097646;28;20254;-71
2022/06/08 03:07:39;;;;;;;6.13;5.53;;;12.10;99.90;;;;;;5090432;28;20603;-73
2022/06/08 03:10:10;;;;;;;6.93;6.20;;;12.10;99.90;;;;;;5076012;28;20200;-73
2022/06/08 03:12:41;;;;;;;7.10;6.40;;;12.00;99.90;;;;;;5075713;28;20626;-73
2022/06/08 03:15:10;;;;;;;6.83;5.90;;;11.90;99.90;;;;;;5075141;28;20250;-73
2022/06/08 03:17:38;;;;;;;6.57;5.93;;;11.90;99.90;;;;;;5075166;28;20197;-73
2022/06/08 03:20:08;;;;;;;6.40;5.80;;;11.90;99.90;;;;;;5075103;28;20201;-74
2022/06/08 03:22:35;;;;;;;7.83;5.57;;;11.90;99.90;;;;;;5075425;28;20288;-74
2022/06/08 03:25:02;;;;;;;9.47;5.57;;;11.80;99.90;;;;;;5075043;28;20206;-74
2022/06/08 03:27:30;;;;;;;6.17;5.57;;;11.80;99.90;;;;;;5075113;28;20201;-73
2022/06/08 03:29:57;;;;;;;7.50;6.20;;;11.80;99.90;;;;;;5074725;28;20205;-74
2022/06/08 03:32:24;;;;;;;7.03;6.33;;;11.80;99.90;;;;;;5057048;28;20641;-73
2022/06/08 03:34:50;;;;;;;7.37;6.60;;;11.90;99.90;;;;;;5074584;28;20201;-74
2022/06/08 03:37:17;;;;;;;7.50;6.70;;;12.00;99.90;;;;;;5074702;28;20197;-74
2022/06/08 03:39:44;;;;;;;8.27;6.57;;;12.00;99.90;;;;;;5074823;28;20224;-73
2022/06/08 03:42:10;;;;;;;9.60;6.53;;;12.00;99.90;;;;;;5074550;28;20251;-73
2022/06/08 03:44:38;;;;;;;7.67;6.87;;;12.00;99.90;;;;;;5073589;28;20652;-73
2022/06/08 03:47:09;;;;;;;11.63;7.60;;;11.90;99.90;;;;;;5074134;28;20212;-74
2022/06/08 03:49:36;;;;;;;10.33;8.63;;;11.90;99.90;;;;;;5074557;28;20197;-73
2022/06/08 03:52:07;;;;;;;12.90;9.60;;;12.00;99.90;;;;;;5074503;28;20229;-73
2022/06/08 03:54:37;;;;;;;14.10;10.23;;;12.00;99.90;;;;;;5074451;28;20251;-74
2022/06/08 03:57:07;;;;;;;17.83;11.20;;;12.00;99.90;;;;;;5074053;28;20291;-73
2022/06/08 03:59:36;;;;;;;20.27;11.37;;;12.10;99.90;;;;;;5073932;28;20288;-73
2022/06/08 04:02:05;;;;;;;18.07;12.13;;;12.20;99.90;;;;;;5074344;28;20192;-73
2022/06/08 04:04:33;;;;;;;17.77;12.80;;;12.20;99.90;;;;;;5073940;28;20653;-74
2022/06/08 04:07:00;;;;;;;14.20;10.33;;;12.30;99.90;;;;;;5073969;28;20295;-74
2022/06/08 04:09:26;;;;;;;16.03;10.40;;;12.40;99.90;;;;;;5073983;28;20193;-73
2022/06/08 04:11:53;;;;;;;14.07;8.97;;;12.50;99.90;;;;;;5073965;28;20224;-73
2022/06/08 04:14:20;;;;;;;12.37;9.73;;;12.50;99.90;;;;;;5074149;28;20201;-74
2022/06/08 04:16:48;;;;;;;13.83;9.07;;;12.60;99.90;;;;;;5074012;28;20246;-74
2022/06/08 04:19:16;;;;;;;8.77;7.87;;;12.80;99.90;;;;;;5073948;28;20197;-74
2022/06/08 04:21:43;;;;;;;10.50;8.23;;;12.90;99.90;;;;;;5073894;28;20210;-75
2022/06/08 04:24:13;;;;;;;10.03;7.87;;;13.00;99.90;;;;;;5073755;28;20254;-74
2022/06/08 04:26:40;;;;;;;8.97;7.67;;;13.10;99.90;;;;;;5073864;28;20209;-74
2022/06/08 04:29:08;;;;;;;7.13;6.43;;;13.20;99.90;;;;;;5073642;28;20270;-74
2022/06/08 04:31:35;;;;;;;8.27;6.37;;;13.40;99.90;;;;;;5073510;28;20221;-74
2022/06/08 04:34:04;;;;;;;8.57;6.50;;;13.50;99.90;;;;;;5073329;28;20205;-74
2022/06/08 04:36:32;;;;;;;6.60;5.77;;;13.70;99.90;;;;;;5073501;28;20209;-73
2022/06/08 04:39:00;;;;;;;9.63;5.40;;;13.80;99.90;;;;;;5073237;28;20724;-74
2022/06/08 04:41:27;;;;;;;5.87;5.27;;;13.80;99.90;;;;;;5073741;28;20266;-73
2022/06/08 04:43:55;;;;;;;5.43;4.90;;;13.80;99.90;;;;;;5073165;28;20193;-73
2022/06/08 04:46:21;;;;;;;8.30;4.90;;;13.80;99.90;;;;;;5073096;28;20208;-73
2022/06/08 04:48:48;;;;;;;5.33;4.80;;;13.80;99.90;;;;;;5072991;28;20229;-73
2022/06/08 04:51:16;;;;;;;7.87;5.03;;;13.80;99.90;;;;;;5073042;28;20254;-74
2022/06/08 04:53:47;;;;;;;7.27;4.53;;;13.90;99.90;;;;;;5073120;28;20205;-73
2022/06/08 04:56:14;;;;;;;6.33;4.60;;;13.90;99.90;;;;;;5073056;28;20231;-73
2022/06/08 04:58:41;;;;;;;5.77;4.40;;;14.00;99.90;;;;;;5073240;28;20205;-73
2022/06/08 05:01:08;;;;;;;5.10;3.97;;;14.00;99.90;;;;;;5072941;28;20204;-73
2022/06/08 05:03:35;;;;;;;7.47;4.37;;;14.10;99.90;;;;;;5073022;28;20270;-73
2022/06/08 05:06:02;;;;;;;5.93;4.00;;;14.20;99.90;;;;;;5081151;28;20197;-72
2022/06/08 05:08:29;;;;;;;6.03;3.90;;;14.30;99.90;;;;;;5082674;28;20204;-73
2022/06/08 05:10:57;;;;;;;4.13;3.43;;;14.40;99.90;;;;;;5080893;28;20197;-73
2022/06/08 05:13:24;;;;;;;6.33;3.63;;;14.50;99.90;;;;;;5072804;28;20252;-73
2022/06/08 05:15:51;;;;;;;4.67;3.43;;;14.70;99.90;;;;;;5072677;28;20648;-74
2022/06/08 05:18:20;;;;;;;6.80;3.83;;;14.80;99.90;;;;;;5072758;28;20201;-73
2022/06/08 05:20:47;;;;;;;3.70;3.27;;;14.80;99.90;;;;;;5072548;28;20259;-73
2022/06/08 05:23:17;;;;;;;3.87;3.33;;;14.70;99.90;;;;;;5072763;28;20258;-73
2022/06/08 05:25:45;;;;;;;3.70;3.27;;;14.90;99.90;;;;;;5072674;28;20247;-73
2022/06/08 05:28:14;;;;;;;6.13;3.37;;;15.10;99.90;;;;;;5072775;28;20207;-74
2022/06/08 05:30:44;;;;;;;4.17;3.23;;;15.30;99.90;;;;;;5072394;28;20204;-73
2022/06/08 05:33:12;;;;;;;4.00;3.17;;;15.40;99.90;;;;;;5072389;28;20224;-74
2022/06/08 05:35:40;;;;;;;5.53;3.00;;;15.50;99.90;;;;;;5072875;28;20251;-74
2022/06/08 05:38:07;;;;;;;4.33;2.70;;;15.60;99.90;;;;;;5072864;28;20223;-74
2022/06/08 05:40:37;;;;;;;3.97;3.00;;;15.70;99.90;;;;;;5072459;28;20203;-75
2022/06/08 05:43:05;;;;;;;4.67;2.90;;;15.80;99.90;;;;;;5072536;28;20193;-74
2022/06/08 05:45:34;;;;;;;4.03;3.00;;;15.80;99.90;;;;;;5072516;28;20596;-74
2022/06/08 05:48:01;;;;;;;3.60;2.97;;;15.90;99.90;;;;;;5072570;28;20631;-74
2022/06/08 05:50:29;;;;;;;4.28;3.22;;;16.00;99.90;;;;;;5072682;28;20201;-74
2022/06/08 05:52:56;;;;;;;4.10;3.20;;;16.00;99.90;;;;;;5072360;28;20224;-74
2022/06/08 05:55:24;;;;;;;3.20;2.90;;;15.90;99.90;;;;;;5072388;28;20295;-74
2022/06/08 05:57:52;;;;;;;4.20;3.53;;;15.80;99.90;;;;;;5072624;28;20250;-74
2022/06/08 06:00:21;;;;;;;5.67;3.53;;;15.80;99.90;;;;;;5072405;28;20288;-74
2022/06/08 06:02:50;;;;;;;4.18;3.58;;;16.00;99.90;;;;;;5072315;28;20652;-74
2022/06/08 06:05:19;;;;;;;4.97;3.40;;;16.20;99.90;;;;;;5081495;28;20263;-77
2022/06/08 06:07:46;;;;;;;4.32;3.28;;;16.20;99.90;;;;;;5088002;28;20242;-77
2022/06/08 06:10:14;;;;;;;10.30;3.90;;;16.10;99.90;;;;;;5093093;28;20193;-78
2022/06/08 06:12:41;;;;;;;6.30;3.60;;;16.10;99.90;;;;;;5097682;28;20204;-80
2022/06/08 06:15:09;;;;;;;5.15;3.00;;;16.30;99.90;;;;;;5096894;28;20228;-80
2022/06/08 06:17:35;;;;;;;4.33;3.27;;;16.50;99.90;;;;;;5092566;28;20224;-77
2022/06/08 06:20:04;;;;;;;4.78;3.13;;;16.30;99.90;;;;;;5090478;28;20197;-78
2022/06/08 06:22:32;;;;;;;4.40;2.75;;;16.30;99.90;;;;;;5076378;28;20193;-77
2022/06/08 06:24:59;;;;;;;4.07;3.00;;;16.40;99.90;;;;;;5075946;28;20657;-79
2022/06/08 06:27:26;;;;;;;5.18;2.88;;;16.60;99.90;;;;;;5075936;28;20200;-78
2022/06/08 06:29:52;;;;;;;6.00;3.15;;;16.70;99.90;;;;;;5076043;28;20204;-79
2022/06/08 06:32:24;;;;;;;4.32;3.45;;;16.80;99.90;;;;;;5076648;28;20706;-80
2022/06/08 06:34:51;;;;;;;4.15;3.17;;;17.00;99.90;;;;;;5076123;28;20204;-73
2022/06/08 06:37:19;;;;;;;5.00;3.08;;;17.00;99.90;;;;;;5075477;28;20242;-74
2022/06/08 06:39:46;;;;;;;5.80;2.83;;;16.90;99.90;;;;;;5075396;28;20197;-74
2022/06/08 06:42:16;;;;;;;4.30;3.03;;;16.80;99.90;;;;;;5075845;28;20208;-73
2022/06/08 06:44:43;;;;;;;4.72;3.20;;;16.80;99.90;;;;;;5075803;28;20201;-74
2022/06/08 06:47:09;;;;;;;3.97;2.80;;;16.80;99.90;;;;;;5075279;28;20197;-74
2022/06/08 06:49:36;;;;;;;5.65;3.40;;;17.00;99.90;;;;;;5075513;28;20197;-75
2022/06/08 06:52:03;;;;;;;6.68;3.58;;;16.90;99.90;;;;;;5075452;28;20252;-74
2022/06/08 06:54:32;;;;;;;4.72;3.00;;;16.90;99.90;;;;;;5079122;28;20197;-74
2022/06/08 06:56:58;;;;;;;3.20;2.90;;;16.90;99.90;;;;;;5079471;28;20287;-74
2022/06/08 06:59:25;;;;;;;3.67;2.78;;;17.00;99.90;;;;;;5075582;28;20255;-74
2022/06/08 07:01:52;;;;;;;5.05;3.40;;;17.00;99.90;;;;;;5075417;28;20725;-74
2022/06/08 07:04:19;;;;;;;5.22;2.97;;;16.90;99.90;;;;;;5075340;28;20193;-74
2022/06/08 07:06:45;;;;;;;3.72;2.80;;;16.90;99.90;;;;;;5075214;28;20255;-74
2022/06/08 07:09:13;;;;;;;7.22;3.17;;;16.90;99.90;;;;;;5075090;28;20193;-74
2022/06/08 07:11:41;;;;;;;4.05;3.10;;;17.00;99.90;;;;;;5075204;28;20292;-74
2022/06/08 07:14:11;;;;;;;5.82;3.15;;;17.00;99.90;;;;;;5076939;28;20220;-73
2022/06/08 07:16:38;;;;;;;2.88;2.47;;;17.10;99.90;;;;;;5075216;28;20197;-73
2022/06/08 07:19:05;;;;;;;6.00;2.55;;;17.20;99.90;;;;;;5074852;28;20202;-74
2022/06/08 07:21:32;;;;;;;3.20;2.58;;;17.20;99.90;;;;;;5075050;28;20675;-74
2022/06/08 07:23:59;;;;;;;4.82;2.30;;;17.40;99.90;;;;;;5074947;28;20254;-74
2022/06/08 07:26:27;;;;;;;3.50;2.30;;;17.50;99.90;;;;;;5074807;28;20237;-74
2022/06/08 07:28:56;;;;;;;7.07;2.63;;;17.50;99.90;;;;;;5074792;28;20193;-74
2022/06/08 07:31:23;;;;;;;3.40;2.28;;;17.20;99.90;;;;;;5074682;28;20197;-74
2022/06/08 07:33:49;;;;;;;5.32;2.30;;;17.30;99.90;;;;;;5074412;28;20220;-74
2022/06/08 07:36:17;;;;;;;4.05;2.65;;;17.20;99.90;;;;;;5074399;28;20247;-74
2022/06/08 07:38:43;;;;;;;4.38;2.70;;;17.40;99.90;;;;;;5074604;28;20204;-74
2022/06/08 07:41:10;;;;;;;3.92;2.25;;;17.50;99.90;;;;;;5074257;28;20595;-74
2022/06/08 07:43:37;;;;;;;7.07;2.15;;;17.70;99.90;;;;;;5074364;28;20205;-74
2022/06/08 07:46:06;;;;;;;5.13;2.30;;;17.80;99.90;;;;;;5074344;28;20255;-74
2022/06/08 07:51:17;;;;;;;3.65;1.70;;;18.00;99.90;;;;;;5074283;28;20196;-74
2022/06/08 07:53:43;;;;;;;4.80;2.20;;;18.30;99.90;;;;;;5074306;28;20278;-74
2022/06/08 07:56:10;;;;;;;7.53;2.42;;;18.90;99.90;;;;;;5074099;28;20193;-73
2022/06/08 07:58:37;;;;;;;3.15;1.60;;;19.20;99.90;;;;;;5074673;28;20608;-73
2022/06/08 08:01:07;;;;;;;3.92;2.30;;;19.20;99.90;;;;;;5074228;28;20258;-74
2022/06/08 08:03:33;;;;;;;3.72;2.20;;;19.40;99.90;;;;;;5074133;28;20255;-74
2022/06/08 08:06:00;;;;;;;4.72;2.10;;;20.10;99.90;;;;;;5074180;28;20196;-73
2022/06/08 08:08:27;;;;;;;5.22;1.80;;;20.50;99.90;;;;;;5074045;28;20270;-74
2022/06/08 08:10:53;;;;;;;3.92;2.10;;;20.10;99.90;;;;;;5073974;28;20201;-74
2022/06/08 08:13:20;;;;;;;3.13;1.70;;;20.10;99.90;;;;;;5073875;28;20221;-73
2022/06/08 08:15:48;;;;;;;2.55;1.77;;;19.80;99.90;;;;;;5073599;28;20201;-74
2022/06/08 08:18:16;;;;;;;5.03;2.10;;;20.10;99.90;;;;;;5073823;28;20197;-73
2022/06/08 08:20:43;;;;;;;4.05;1.98;;;20.00;99.90;;;;;;5073618;28;20242;-74
2022/06/08 08:23:10;;;;;;;2.65;1.70;;;19.70;99.90;;;;;;5073736;28;20234;-74
2022/06/08 08:25:36;;;;;;;3.95;1.80;;;20.10;99.90;;;;;;5073679;28;20258;-74
2022/06/08 08:28:03;;;;;;;4.13;1.80;;;20.70;99.90;;;;;;5073487;28;20213;-73
2022/06/08 08:30:32;;;;;;;3.75;1.83;;;21.00;99.90;;;;;;5073236;28;20204;-74
2022/06/08 08:32:59;;;;;;;5.70;1.80;;;20.80;99.90;;;;;;5073274;28;20224;-74
2022/06/08 08:35:28;;;;;;;4.95;2.10;;;20.90;99.90;;;;;;5073489;28;20212;-74
2022/06/08 08:37:56;;;;;;;3.10;1.50;;;20.80;99.90;;;;;;5073408;28;20603;-73
2022/06/08 08:40:33;;;;;;;2.72;1.55;;;20.90;99.90;;;;;;5073405;28;20196;-74
2022/06/08 08:42:59;;;;;;;3.80;1.70;;;21.10;99.90;;;;;;5073441;28;20250;-74
2022/06/08 08:45:28;;;;;;;5.50;1.40;;;21.30;99.90;;;;;;5073329;28;20204;-74
2022/06/08 08:48:03;;;;;;;3.33;1.50;;;21.70;99.90;;;;;;5073097;28;20229;-74
2022/06/08 08:50:35;;;;;;;3.60;1.77;;;21.10;99.90;;;;;;5073235;28;20201;-74
2022/06/08 08:53:08;;;;;;;4.30;1.80;;;21.10;99.90;;;;;;5073082;28;20213;-74
2022/06/08 08:55:42;;;;;;;4.95;1.80;;;21.30;99.90;;;;;;5073135;28;20674;-74
2022/06/08 08:58:14;;;;;;;4.25;2.10;;;21.10;99.90;;;;;;5073226;28;20246;-74
2022/06/08 09:00:43;;;;;;;3.60;1.95;;;21.20;99.90;;;;;;5073080;28;20342;-74
2022/06/08 09:03:25;;;;;;;4.18;1.85;;;20.60;99.90;;;;;;5072853;28;20205;-74
2022/06/08 09:05:56;;;;;;;3.50;1.67;;;20.60;99.90;;;;;;5073125;28;20197;-74
2022/06/08 09:08:24;;;;;;;5.05;2.10;;;20.60;99.90;;;;;;5072881;28;20204;-74
2022/06/08 09:10:52;;;;;;;3.17;2.00;;;20.90;99.90;;;;;;5073071;28;20562;-74
2022/06/08 09:13:22;;;;;;;3.70;1.95;;;21.40;99.90;;;;;;5072825;28;20267;-74
2022/06/08 09:15:54;;;;;;;3.25;1.92;;;21.70;99.90;;;;;;5072846;28;20258;-74
2022/06/08 09:18:33;;;;;;;4.28;1.88;;;21.20;99.90;;;;;;5072771;28;20296;-74
2022/06/08 09:21:23;;;;;;;2.13;1.70;;;21.30;99.90;;;;;;5072965;28;20228;-74
2022/06/08 09:23:53;;;;;;;4.32;1.70;;;21.70;99.90;;;;;;5072635;28;20596;-74
2022/06/08 09:26:34;;;;;;;3.42;1.90;;;21.90;96.50;;;;;;5072768;28;20718;-74
2022/06/08 09:29:08;;;;;;;2.88;1.80;;;22.10;95.90;;;;;;5072767;28;20236;-74
2022/06/08 09:31:38;;;;;;;2.00;1.60;;;22.00;93.60;;;;;;5072800;28;20215;-74
2022/06/08 09:34:17;;;;;;;3.28;1.60;;;23.20;90.50;;;;;;5072592;28;20274;-74
2022/06/08 09:36:46;;;;;;;2.22;1.55;;;24.10;84.00;;;;;;5072547;28;20283;-74
2022/06/08 09:39:16;;;;;;;7.43;1.85;;;24.20;70.20;;;;;;5072774;28;20205;-74
2022/06/08 09:41:49;;;;;;;4.10;1.48;;;24.00;65.80;;;;;;5072772;28;20208;-74
2022/06/08 09:44:21;;;;;;;2.05;1.50;;;23.60;63.90;;;;;;5075252;28;20209;-74
2022/06/08 09:52:50;;;;;;;2.15;1.73;;;22.70;71.60;;;;;;5056550;28;20200;-74
2022/06/08 09:55:29;;;;;;;2.40;1.50;;;22.60;72.90;;;;;;5056475;28;20292;-74
2022/06/08 09:58:06;;;;;;;5.43;1.73;;;22.30;73.90;;;;;;5056338;28;20258;-74
2022/06/08 10:00:40;;;;;;;3.28;1.60;;;22.40;74.80;;;;;;5056538;28;20451;-74
2022/06/08 10:03:29;;;;;;;3.88;1.48;;;22.10;70.50;;;;;;5056453;28;20255;-75
2022/06/08 10:06:07;;;;;;;2.38;1.40;;;22.00;73.90;;;;;;5056261;28;20201;-74
2022/06/08 10:08:47;;;;;;;2.80;1.67;;;21.90;76.80;;;;;;5056737;28;20591;-75
2022/06/08 10:14:22;;;;;;;2.28;1.40;;;22.90;73.30;;;;;;5045318;28;20307;-75
2022/06/08 10:16:54;;;;;;;1.77;1.23;;;23.10;57.60;;;;;;5056261;28;20197;-74
2022/06/08 10:19:26;;;;;;;13.02;1.70;;;23.80;55.90;;;;;;5056016;28;20600;-74
2022/06/08 10:21:53;;;;;;;3.50;1.60;;;24.20;55.90;;;;;;5056052;28;20197;-74
2022/06/08 10:24:27;;;;;;;3.70;1.52;;;25.70;53.10;;;;;;5055826;28;20208;-74
2022/06/08 10:26:57;;;;;;;4.03;1.30;;;24.90;51.80;;;;;;5055824;28;20247;-75
2022/06/08 10:29:31;;;;;;;3.15;1.33;;;24.00;52.30;;;;;;5056230;28;20225;-75
2022/06/08 10:32:06;;;;;;;3.05;1.50;;;23.90;54.50;;;;;;5055611;28;20198;-75
2022/06/08 10:34:35;;;;;;;2.20;1.60;;;24.90;53.60;;;;;;5055719;28;20286;-75
2022/06/08 10:37:08;;;;;;;3.03;1.38;;;23.90;51.90;;;;;;5055841;28;20221;-75
2022/06/08 10:39:37;;;;;;;1.63;1.35;;;23.40;51.90;;;;;;5055820;28;20186;-75
2022/06/08 10:42:40;;;;;;;3.88;1.60;;;22.80;49.90;;;;;;5055995;28;20229;-75
2022/06/08 10:45:42;;;;;;;2.47;1.40;;;23.40;49.90;;;;;;5055579;28;20205;-74
2022/06/08 10:48:34;;;;;;;3.00;1.30;;;24.00;49.70;;;;;;5065851;28;20262;-78
2022/06/08 10:51:39;;;;;;;1.75;1.25;;;25.00;45.10;;;;;;5075502;28;20229;-75
2022/06/08 10:54:57;;;;;;;3.38;1.75;;;24.60;46.00;;;;;;5074821;28;20224;-75
2022/06/08 10:58:03;;;;;;;2.13;1.20;;;24.20;49.00;;;;;;5075560;28;20284;-75
2022/06/08 11:00:59;;;;;;;3.78;1.45;;;24.60;46.20;;;;;;5078356;28;20204;-78
2022/06/08 11:03:52;;;;;;;2.25;1.35;;;25.00;47.20;;;;;;5075844;28;20295;-79
2022/06/08 11:06:57;;;;;;;2.80;1.58;;;25.70;44.50;;;;;;5075413;28;20197;-79
2022/06/08 11:09:51;;;;;;;1.92;1.13;;;27.60;41.60;;;;;;5076479;28;20242;-82
2022/06/08 11:12:30;;;;;;;2.45;1.30;;;28.20;37.30;;;;;;5091973;28;20204;-83
2022/06/08 11:14:59;;;;;;;2.03;1.20;;;28.30;34.70;;;;;;5075414;28;20315;-83
2022/06/08 11:17:29;;;;;;;2.63;1.50;;;26.30;34.60;;;;;;5076140;28;20247;-84
2022/06/08 11:20:03;;;;;;;4.28;1.70;;;24.90;37.00;;;;;;5075260;28;20201;-80
2022/06/08 11:22:33;;;;;;;1.65;1.38;;;24.20;40.00;;;;;;5076148;28;20197;-83
2022/06/08 11:25:05;;;;;;;2.17;1.17;;;24.60;39.00;;;;;;5058087;28;20246;-86
2022/06/08 11:27:33;;;;;;;2.95;1.17;;;24.70;37.80;;;;;;5076062;28;20197;-81
2022/06/08 11:30:02;;;;;;;2.75;1.10;;;24.40;35.50;;;;;;5077300;28;20201;-86
2022/06/08 11:33:15;;;;;;;3.22;1.35;;;24.50;35.70;;;;;;5077176;28;20583;-87
2022/06/08 11:36:02;;;;;;;3.50;1.40;;;24.20;36.00;;;;;;5076307;28;20231;-87
2022/06/08 11:38:49;;;;;;;2.40;1.25;;;24.20;37.20;;;;;;5076323;28;20197;-85
2022/06/08 11:41:32;;;;;;;4.55;1.20;;;24.80;37.20;;;;;;5076692;28;20252;-86
2022/06/08 11:44:02;;;;;;;3.22;1.48;;;24.30;38.10;;;;;;5082389;28;20250;-86
2022/06/08 11:46:34;;;;;;;2.42;1.40;;;25.00;37.90;;;;;;5076878;28;20201;-87
2022/06/08 11:49:01;;;;;;;3.75;1.58;;;26.60;36.70;;;;;;5076157;28;20631;-86
2022/06/08 11:51:34;;;;;;;3.88;1.48;;;28.40;33.90;;;;;;5076321;28;20201;-86
2022/06/08 11:54:17;;;;;;;2.33;1.25;;;29.00;32.70;;;;;;5075868;28;20232;-84
2022/06/08 11:56:57;;;;;;;1.70;1.20;;;30.00;31.40;;;;;;5075909;28;20230;-88
2022/06/08 11:59:25;;;;;;;1.67;1.08;;;31.60;28.40;;;;;;5074602;28;20679;-88
2022/06/08 12:01:54;;;;;;;1.90;1.30;;;32.60;25.30;;;;;;5073887;28;20254;-85
2022/06/08 12:04:24;;;;;;;3.60;1.30;;;31.90;25.10;;;;;;5074877;28;20287;-87
2022/06/08 12:06:53;;;;;;;2.25;1.20;;;30.40;25.60;;;;;;5073366;28;20197;-83
2022/06/08 12:09:24;;;;;;;2.45;1.40;;;29.60;26.20;;;;;;5072263;28;20197;-79
2022/06/08 12:11:55;;;;;;;2.85;1.38;;;28.50;26.80;;;;;;5071824;28;20279;-78
2022/06/08 12:14:27;;;;;;;2.33;1.10;;;27.50;28.50;;;;;;5071245;28;20224;-78
2022/06/08 12:16:59;;;;;;;3.45;1.40;;;27.90;29.00;;;;;;5071670;28;20205;-79
2022/06/08 12:19:27;;;;;;;3.88;1.15;;;28.70;29.40;;;;;;5071107;28;20196;-79
2022/06/08 12:22:09;;;;;;;1.90;1.40;;;29.90;28.60;;;;;;5071231;28;20196;-79
2022/06/08 12:24:36;;;;;;;2.53;1.30;;;28.90;28.70;;;;;;5071489;28;20258;-79
2022/06/08 12:27:23;;;;;;;2.72;1.42;;;28.70;26.60;;;;;;5071289;28;20561;-78
2022/06/08 12:29:53;;;;;;;2.67;1.20;;;28.00;26.50;;;;;;5071434;28;20652;-86
2022/06/08 12:32:49;;;;;;;2.22;1.42;;;27.80;27.10;;;;;;5074198;28;20197;-86
2022/06/08 12:35:30;;;;;;;3.35;1.33;;;26.50;28.40;;;;;;5072108;28;20274;-82
2022/06/08 12:38:20;;;;;;;2.63;1.30;;;27.10;28.20;;;;;;5075901;28;20200;-85
2022/06/08 12:41:09;;;;;;;1.85;1.30;;;28.20;28.40;;;;;;5068128;28;20270;-80
2022/06/08 12:43:41;;;;;;;3.88;1.35;;;28.50;27.40;;;;;;5072407;28;20201;-80
2022/06/08 12:46:27;;;;;;;3.33;1.40;;;28.40;27.90;;;;;;5072595;28;20205;-80
2022/06/08 12:49:02;;;;;;;3.28;1.48;;;29.30;27.40;;;;;;5073022;28;20233;-80
2022/06/08 12:51:40;;;;;;;1.42;1.20;;;27.70;26.80;;;;;;5073037;28;20193;-81
2022/06/08 12:54:14;;;;;;;2.80;1.25;;;27.90;27.20;;;;;;5073528;28;20873;-87
2022/06/08 12:56:43;;;;;;;3.13;1.13;;;28.80;27.30;;;;;;5074476;28;20193;-87
2022/06/08 12:59:12;;;;;;;4.88;1.55;;;28.10;27.70;;;;;;5075936;28;20576;-85
2022/06/08 13:01:41;;;;;;;2.35;1.20;;;26.40;28.10;;;;;;5095822;28;20221;-88
2022/06/08 13:04:08;;;;;;;1.83;1.23;;;26.50;28.70;;;;;;5116303;28;20207;-90
2022/06/08 13:06:35;;;;;;;1.35;1.17;;;26.80;28.10;;;;;;5106763;28;20729;-88
2022/06/08 13:09:02;;;;;;;2.53;1.27;;;27.30;28.00;;;;;;5093883;28;20199;-88
2022/06/08 13:11:29;;;;;;;2.50;1.35;;;27.20;28.10;;;;;;5091184;28;20196;-80
2022/06/08 13:13:57;;;;;;;1.75;1.33;;;26.70;28.50;;;;;;5092351;28;20196;-83
2022/06/08 13:16:27;;;;;;;2.40;1.45;;;26.50;29.10;;;;;;5096578;28;20197;-79
2022/06/08 13:18:56;;;;;;;3.63;1.30;;;27.60;28.80;;;;;;5098151;28;20304;-82
2022/06/08 13:21:25;;;;;;;3.08;1.30;;;29.00;27.00;;;;;;5073579;28;20196;-83